Home > Products > Valid Products > TAF

000
FTUS41 KCLE 142300 CCA
TAFERI
TAF COR
KERI 142342Z 1500/1524 03005KT P6SM SCT050
     FM150400 21003KT P6SM FEW050
     FM151400 20008KT P6SM SCT100 BKN250
     FM152100 20008KT P6SM BKN060 OVC100
     FM152230 23008KT P6SM -RA BKN035 OVC100=



000
FTUS41 KCLE 142300
TAFCAK
TAF
KCAK 142340Z 1500/1524 VRB03KT P6SM SKC
     FM150900 00000KT P6SM SCT250
      TEMPO 1510/1513 4SM BR
     FM151400 20008KT P6SM SCT100 BKN250
     FM152300 22008KT P6SM -RA BKN045 OVC100=



000
FTUS41 KCLE 142300
TAFERI
TAF
KERI 142340Z 1500/1524 03005KT P6SM SCT050
     FM150400 21003KT P6SM FEW050
     FM151400 20008KT P6SM SCT100 BKN250
     FM152100 20008KT P6SM BKN060 OVC100
     FM152200 23008KT P6SM -RA BKN045 OVC100=



000
FTUS41 KCLE 142300
TAFTOL
TAF
KTOL 142340Z 1500/1524 VRB03KT P6SM SKC
     FM150600 00000KT P6SM BKN250
     FM151300 24005KT P6SM SCT100 BKN250
     FM151800 25005KT P6SM -RA BKN045 OVC100
     FM152100 25005KT 4SM -RA BR OVC030=



000
FTUS41 KCLE 142300
TAFMFD
TAF
KMFD 142340Z 1500/1524 VRB03KT P6SM SKC
     FM150800 00000KT P6SM BKN250
     FM151400 19005KT P6SM SCT100 BKN250
     FM152200 25006KT P6SM -RA BKN045 OVC100=



000
FTUS41 KCLE 142300
TAFCLE
TAF
KCLE 142340Z 1500/1606 01005KT P6SM FEW045
     FM150200 16003KT P6SM SKC
     FM151400 20008KT P6SM SCT100 BKN250
     FM151900 20008KT P6SM BKN060 OVC100
     FM152100 22008KT P6SM -RA BKN045 OVC100
     FM152300 22008KT 4SM -RA BR OVC030=



000
FTUS41 KCLE 142300
TAFYNG
TAF
KYNG 142340Z 1500/1524 22003KT P6SM SCT045
     FM150200 VRB03KT P6SM SKC
     FM151000 00000KT P6SM SCT250
      TEMPO 1510/1513 4SM BR
     FM151400 21008KT P6SM SCT100 BKN250
     FM152300 21006KT P6SM SCT045 OVC100=



000
FTUS41 KCLE 142300
TAFFDY
TAF
KFDY 142340Z 1500/1524 VRB03KT P6SM SKC
     FM150600 00000KT P6SM BKN250
     FM151300 24005KT P6SM SCT100 BKN250
     FM151900 25008KT P6SM -RA BKN045 OVC100
     FM152200 25008KT 4SM -RA BR OVC030=



000
FTUS41 KCLE 142100 AAA
TAFCLE
TAF AMD
KCLE 142152Z 1422/1524 01005KT P6SM SCT045
     FM150200 12003KT P6SM SCT045 BKN250
     FM151500 22006KT P6SM BKN040 OVC100
     FM152100 24010KT 5SM -SHRA OVC025=



000
FTUS41 KCLE 142000 AAA
TAFCLE
TAF AMD
KCLE 142047Z 1421/1524 01005KT P6SM BKN045
     FM150200 12003KT P6SM SCT045 BKN250
     FM151500 22006KT P6SM BKN040 OVC100
     FM152100 24010KT 5SM -SHRA OVC025=



000
FTUS41 KCLE 142000 AAA
TAFTOL
TAF AMD
KTOL 142045Z 1421/1518 22005KT P6SM SCT045
     FM151200 24004KT P6SM BKN040 OVC100=



000
FTUS41 KCLE 142000 AAA
TAFFDY
TAF AMD
KFDY 142044Z 1421/1518 19006KT P6SM SCT045
     FM151400 24004KT P6SM BKN035 OVC100=



000
FTUS41 KCLE 141700
TAFTOL
TAF
KTOL 141737Z 1418/1518 27005KT P6SM BKN045
     FM150000 22005KT P6SM SCT045
     FM151200 24004KT P6SM BKN040 OVC100=



000
FTUS41 KCLE 141700
TAFCAK
TAF
KCAK 141737Z 1418/1518 18003KT P6SM SCT040 BKN250
     FM151500 23006KT P6SM BKN040 OVC120=



000
FTUS41 KCLE 141700
TAFERI
TAF
KERI 141737Z 1418/1518 36006KT P6SM SCT040
     FM150100 24003KT P6SM SCT040 BKN250
     FM151500 24008KT P6SM BKN040 OVC120=



000
FTUS41 KCLE 141700
TAFFDY
TAF
KFDY 141737Z 1418/1518 34003KT P6SM BKN045
     FM150000 22005KT P6SM SCT045
     FM151400 24004KT P6SM BKN035 OVC100=



000
FTUS41 KCLE 141700
TAFMFD
TAF
KMFD 141737Z 1418/1518 18006KT P6SM SCT040 BKN250
     FM151500 24004KT P6SM BKN040 OVC100=



000
FTUS41 KCLE 141700
TAFYNG
TAF
KYNG 141737Z 1418/1518 27003KT P6SM BKN045
     FM150100 VRB03KT P6SM SCT045
     FM151500 22006KT P6SM BKN045 OVC120=



000
FTUS41 KCLE 141700
TAFCLE
TAF
KCLE 141737Z 1418/1524 33003KT P6SM BKN045
     FM150200 20003KT P6SM SCT045 BKN250
     FM151500 22006KT P6SM BKN040 OVC100
     FM152100 24010KT 5SM -SHRA OVC025=



000
FTUS41 KCLE 141400 AAA
TAFCLE
TAF AMD
KCLE 141454Z 1415/1518 22004KT P6SM SCT050
     FM141800 30005KT P6SM BKN050
     FM150200 19005KT P6SM FEW040 SCT250
     FM151500 22010KT P6SM SCT040 OVC120=



000
FTUS41 KCLE 141100
TAFTOL
TAF
KTOL 141129Z 1412/1512 22005KT P6SM BKN045
     FM150000 22005KT P6SM SCT150=



000
FTUS41 KCLE 141100
TAFYNG
TAF
KYNG 141129Z 1412/1512 22003KT P6SM BKN035=



000
FTUS41 KCLE 141100
TAFCLE
TAF
KCLE 141129Z 1412/1518 VRB04KT P6SM SCT040 BKN250
     FM141600 35005KT P6SM BKN040
     FM150200 19005KT P6SM FEW040 SCT250
     FM151500 22010KT P6SM SCT040 OVC120=



000
FTUS41 KCLE 141100
TAFCAK
TAF
KCAK 141129Z 1412/1512 25003KT P6SM BKN045 OVC250=



000
FTUS41 KCLE 141100
TAFERI
TAF
KERI 141129Z 1412/1512 36005KT P6SM BKN040
     FM150000 23005KT P6SM SCT040 BKN250=



000
FTUS41 KCLE 141100
TAFMFD
TAF
KMFD 141129Z 1412/1512 00000KT P6SM BKN040 OVC250
     FM150000 20004KT P6SM FEW250=



000
FTUS41 KCLE 141100
TAFFDY
TAF
KFDY 141129Z 1412/1512 VRB03KT P6SM BKN045
     FM150000 22005KT P6SM SCT150=



000
FTUS41 KCLE 141000 AAB
TAFYNG
TAF AMD
KYNG 141018Z 1410/1506 VRB03KT 6SM BR SCT030
      TEMPO 1411/1413 5SM BR
     FM141400 15005KT P6SM BKN035
     FM141900 27003KT P6SM SCT035=



000
FTUS41 KCLE 141000 AAA
TAFCAK
TAF AMD
KCAK 141017Z 1410/1506 00000KT 6SM BR FEW045 SCT250
     FM141400 15005KT P6SM SCT040=



000
FTUS41 KCLE 141000 AAA
TAFMFD
TAF AMD
KMFD 141017Z 1410/1506 00000KT P6SM FEW040 SCT250
      TEMPO 1411/1413 4SM BR
     FM141800 14004KT P6SM SCT035=



000
FTUS41 KCLE 140800 AAA
TAFCLE
TAF AMD
KCLE 140857Z 1409/1512 VRB04KT P6SM BKN035
     FM141600 03005KT P6SM SCT035
     FM150700 18005KT P6SM FEW035 SCT250=



000
FTUS41 KCLE 140700 AAA
TAFYNG
TAF AMD
KYNG 140755Z 1408/1506 VRB03KT 3SM BR SCT030
      TEMPO 1409/1413 2SM BR
     FM141400 15005KT P6SM BKN035
     FM141900 27003KT P6SM SCT035=



000
FTUS41 KCLE 140500
TAFCAK
TAF
KCAK 140531Z 1406/1506 VRB03KT P6SM SCT035
     FM141000 00000KT 3SM BR FEW045
     FM141400 15005KT P6SM SCT040=



000
FTUS41 KCLE 140500
TAFTOL
TAF
KTOL 140531Z 1406/1506 VRB03KT P6SM FEW035
     FM140900 00000KT P6SM BKN035
     FM141600 22005KT P6SM SCT035=



000
FTUS41 KCLE 140500
TAFYNG
TAF
KYNG 140531Z 1406/1506 VRB03KT P6SM SCT030
     FM141000 VRB03KT 3SM BR SCT030
     FM141400 15005KT P6SM BKN035
     FM141900 27003KT P6SM SCT035=



000
FTUS41 KCLE 140500
TAFCLE
TAF
KCLE 140531Z 1406/1512 VRB04KT P6SM BKN035
     FM140800 09004KT P6SM BKN035
     FM141600 03005KT P6SM SCT035
     FM150700 18005KT P6SM FEW035 SCT250=



000
FTUS41 KCLE 140500
TAFMFD
TAF
KMFD 140531Z 1406/1506 00000KT P6SM SKC
      TEMPO 1410/1413 4SM BR
     FM141800 14004KT P6SM SCT035=



000
FTUS41 KCLE 140500
TAFERI
TAF
KERI 140531Z 1406/1506 35005KT P6SM BKN035
     FM140900 08003KT P6SM BKN035
     FM141500 35005KT P6SM SCT035=



000
FTUS41 KCLE 140500
TAFFDY
TAF
KFDY 140531Z 1406/1506 VRB03KT P6SM SCT040
     FM140900 VRB03KT P6SM BKN040
     FM141600 22005KT P6SM SCT035=



000
FTUS41 KCLE 140300 AAA
TAFYNG
TAF AMD
KYNG 140326Z 1403/1424 VRB03KT P6SM SCT030
      TEMPO 1406/1410 BKN030
     FM141000 VRB03KT 3SM BR SCT030
     FM141400 15005KT P6SM BKN035
     FM141900 27003KT P6SM SCT035=



000
FTUS41 KCLE 140300 AAA
TAFCAK
TAF AMD
KCAK 140323Z 1403/1424 01005KT P6SM SCT035
      TEMPO 1403/1407 BKN035
     FM141000 00000KT 3SM BR FEW045
     FM141400 15005KT P6SM SCT040=



000
FTUS41 KCLE 140300 AAA
TAFCLE
TAF AMD
KCLE 140310Z 1403/1506 36004KT P6SM BKN035
     FM140800 09004KT P6SM BKN035
     FM141600 03005KT P6SM SCT035=



000
FTUS41 KCLE 140200 AAA
TAFFDY
TAF AMD
KFDY 140227Z 1402/1424 05005KT P6SM SCT040
     FM140900 VRB03KT P6SM BKN040
     FM141600 22005KT P6SM SCT035=



000
FTUS41 KCLE 140200 AAA
TAFTOL
TAF AMD
KTOL 140226Z 1402/1424 VRB03KT P6SM FEW035
     FM140900 00000KT P6SM BKN035
     FM141600 22005KT P6SM SCT035=



000
FTUS41 KCLE 132300
TAFYNG
TAF
KYNG 132336Z 1400/1424 36005KT P6SM BKN045
     FM140400 VRB03KT P6SM SCT045
     FM141000 VRB03KT 3SM BR SCT035
     FM141400 15005KT P6SM BKN035
     FM141900 27003KT P6SM SCT035=



000
FTUS41 KCLE 132300
TAFTOL
TAF
KTOL 132336Z 1400/1424 36005KT P6SM SCT050
     FM140300 00000KT P6SM SKC
     FM141400 22005KT P6SM SCT035=



000
FTUS41 KCLE 132300
TAFERI
TAF
KERI 132336Z 1400/1424 33005KT P6SM BKN035
     FM140900 08003KT P6SM BKN035
     FM141500 35005KT P6SM SCT035=



000
FTUS41 KCLE 132300
TAFFDY
TAF
KFDY 132336Z 1400/1424 36005KT P6SM SCT050
     FM140300 00000KT P6SM SKC
     FM141400 22005KT P6SM SCT035=



000
FTUS41 KCLE 132300
TAFCAK
TAF
KCAK 132336Z 1400/1424 01005KT P6SM SCT045
     FM140300 VRB03KT P6SM FEW045
     FM141000 00000KT 3SM BR FEW045
     FM141400 15005KT P6SM SCT040=



000
FTUS41 KCLE 132300
TAFMFD
TAF
KMFD 132336Z 1400/1424 35006KT P6SM SCT050
     FM140400 00000KT P6SM SKC
      TEMPO 1410/1413 4SM BR
     FM141400 14004KT P6SM SCT035=



000
FTUS41 KCLE 132300
TAFCLE
TAF
KCLE 132336Z 1400/1506 36005KT P6SM BKN035
     FM140800 12005KT P6SM BKN030
     FM141600 03005KT P6SM SCT035=



000
FTUS41 KCLE 132300 AAA
TAFYNG
TAF AMD
KYNG 132322Z 1323/1418 36005KT P6SM BKN045
     FM140400 VRB03KT P6SM SCT045
     FM141000 VRB03KT 3SM BR SCT035
     FM141400 15005KT P6SM BKN035=



000
FTUS41 KCLE 132300 AAA
TAFCAK
TAF AMD
KCAK 132321Z 1323/1418 01005KT P6SM SCT045
     FM140300 VRB03KT P6SM FEW045
     FM141000 00000KT 3SM BR FEW045
     FM141400 15005KT P6SM SCT040=



000
FTUS41 KCLE 132300 AAA
TAFCLE
TAF AMD
KCLE 132304Z 1323/1424 36005KT P6SM BKN040
     FM140800 12005KT P6SM BKN035
     FM141600 03005KT P6SM SCT035=



000
FTUS41 KCLE 132200 AAA
TAFMFD
TAF AMD
KMFD 132256Z 1323/1418 35006KT P6SM SCT050
     FM140400 00000KT P6SM SKC
     FM141400 14004KT P6SM SCT035=



000
FTUS41 KCLE 132200 AAA
TAFFDY
TAF AMD
KFDY 132252Z 1323/1418 36005KT P6SM SCT050
     FM140300 00000KT P6SM SKC
     FM141400 22005KT P6SM SCT035=



000
FTUS41 KCLE 132200 AAA
TAFTOL
TAF AMD
KTOL 132249Z 1323/1418 36005KT P6SM SCT050
     FM140300 00000KT P6SM SKC
     FM141400 22005KT P6SM SCT035=



000
FTUS41 KCLE 132000 AAA
TAFERI
TAF AMD
KERI 132019Z 1320/1418 28012G22KT P6SM BKN045
     FM140000 32007KT P6SM BKN045
     FM141200 18003KT P6SM BKN045=



000
FTUS41 KCLE 132000 AAA
TAFCAK
TAF AMD
KCAK 132018Z 1320/1418 30012KT P6SM BKN040
     FM140000 01005KT P6SM BKN040
     FM141500 15005KT P6SM SCT040=



000
FTUS41 KCLE 132000 AAA
TAFYNG
TAF AMD
KYNG 132018Z 1320/1418 30012G20KT P6SM BKN045
     FM140100 VRB03KT P6SM SCT050
     FM141500 15005KT P6SM SCT050=



000
FTUS41 KCLE 131700 RRA
TAFCAK
TAF
KCAK 131741Z 1318/1418 30012G20KT P6SM SCT025 OVC040
      TEMPO 1318/1321 BKN025
     FM140000 01005KT P6SM BKN040
     FM141500 15005KT P6SM SCT040=



000
FTUS41 KCLE 131700 RRA
TAFCLE
TAF
KCLE 131741Z 1318/1424 32012G20KT P6SM SCT025 OVC040
      TEMPO 1318/1320 BKN025
     FM140000 36005KT P6SM BKN040
     FM141400 12005KT P6SM SCT035=



000
FTUS41 KCLE 131700 RRA
TAFFDY
TAF
KFDY 131741Z 1318/1418 30012G18KT P6SM SCT025 BKN045
     FM140000 00000KT P6SM SKC
     FM141500 22004KT P6SM SCT035=



000
FTUS41 KCLE 131700 RRA
TAFTOL
TAF
KTOL 131741Z 1318/1418 30012G18KT P6SM SCT025 BKN040
     FM140000 VRB03KT P6SM SKC
     FM141500 22004KT P6SM SCT035=



000
FTUS41 KCLE 131700 RRA
TAFYNG
TAF
KYNG 131741Z 1318/1418 30014G22KT P6SM SCT025 OVC045
      TEMPO 1318/1321 BKN025
     FM140100 VRB03KT P6SM SCT050
     FM141500 15005KT P6SM SCT050=



000
FTUS41 KCLE 131700 RRA
TAFERI
TAF
KERI 131741Z 1318/1418 28015G25KT P6SM SCT025 OVC045
      TEMPO 1318/1321 BKN025
     FM140000 32007KT P6SM OVC045
     FM141200 18003KT P6SM BKN045=



000
FTUS41 KCLE 131700 RRA
TAFMFD
TAF
KMFD 131741Z 1318/1418 30010G18KT P6SM SCT025 OVC040
      TEMPO 1318/1320 BKN025
     FM140000 VRB03KT P6SM BKN035
     FM141500 14004KT P6SM SCT035=



000
FTUS41 KCLE 131600 AAA
TAFYNG
TAF AMD
KYNG 131613Z 1316/1412 31012G20KT P6SM BKN018 BKN025 OVC045
     FM131800 30010G20KT P6SM BKN025 OVC045
     FM132100 32010KT P6SM SCT025 BKN050
     FM140000 00000KT P6SM SKC=



000
FTUS41 KCLE 131400 AAA
TAFCLE
TAF AMD
KCLE 131457Z 1315/1418 30010KT P6SM SCT018 BKN025 OVC035
      TEMPO 1315/1317 BKN018
     FM131700 30010G20KT P6SM BKN025 OVC035
     FM131900 33010G20KT P6SM BKN035
     FM140100 01006KT P6SM OVC035
     FM141200 00000KT P6SM SKC=



000
FTUS41 KCLE 131400 AAB
TAFMFD
TAF AMD
KMFD 131417Z 1314/1412 29012G20KT P6SM BKN015 OVC025
      TEMPO 1315/1318 SCT015
     FM131800 32010G20KT P6SM SCT020 BKN035
     FM132200 35005KT P6SM SCT050
     FM140000 00000KT P6SM SKC=



000
FTUS41 KCLE 131400 AAB
TAFFDY
TAF AMD
KFDY 131415Z 1314/1412 30012G20KT P6SM SCT015 OVC025
      TEMPO 1314/1317 BKN015
     FM131800 32008KT P6SM BKN035
     FM132100 VRB03KT P6SM SCT035
     FM140000 00000KT P6SM SKC=



000
FTUS41 KCLE 131100 AAA
TAFMFD
TAF AMD
KMFD 131159Z 1312/1412 29012KT P6SM OVC007
     FM131600 30012G20KT P6SM SCT007 OVC015
     FM131800 32010G20KT P6SM SCT020 BKN035
     FM132200 35005KT P6SM SCT050
     FM140000 00000KT P6SM SKC=



000
FTUS41 KCLE 131100 AAA
TAFFDY
TAF AMD
KFDY 131157Z 1312/1412 30010KT P6SM BKN009 OVC015
     FM131600 32012KT P6SM SCT009 OVC015
     FM131800 32008KT P6SM BKN035
     FM132100 VRB03KT P6SM SCT035
     FM140000 00000KT P6SM SKC=



000
FTUS41 KCLE 131100
TAFFDY
TAF
KFDY 131137Z 1312/1412 30010KT P6SM OVC035
     FM131400 32012KT P6SM OVC007
     FM131600 32012KT P6SM OVC015
     FM131800 32008KT P6SM BKN035
     FM132100 VRB03KT P6SM SCT035
     FM140000 00000KT P6SM SKC=



000
FTUS41 KCLE 131100
TAFMFD
TAF
KMFD 131137Z 1312/1412 28012KT P6SM OVC015
     FM131800 32010G20KT P6SM BKN035
     FM132200 35005KT P6SM SCT050
     FM140000 00000KT P6SM SKC=



000
FTUS41 KCLE 131100
TAFERI
TAF
KERI 131137Z 1312/1412 14005KT P6SM OVC035
     FM131300 19006KT P6SM -SHRA BKN015 OVC025
     FM131600 27010KT P6SM OVC025
     FM131700 27015G25KT P6SM VCSH OVC025
     FM131900 29010G20KT P6SM OVC035
     FM132200 29010KT P6SM BKN035
     FM140000 34004KT P6SM SCT035
     FM141000 00000KT P6SM SKC=



000
FTUS41 KCLE 131100
TAFYNG
TAF
KYNG 131137Z 1312/1412 00000KT P6SM BKN025 OVC035
     FM131900 30010G20KT P6SM BKN035
     FM132300 35005KT P6SM BKN050
     FM140000 00000KT P6SM SKC=



000
FTUS41 KCLE 131100
TAFCAK
TAF
KCAK 131137Z 1312/1412 27008KT P6SM OVC040
     FM131400 27010KT P6SM OVC025
     FM131900 31010G20KT P6SM BKN035
     FM132200 36005KT P6SM BKN050
     FM140000 00000KT P6SM SKC=



000
FTUS41 KCLE 131100
TAFCLE
TAF
KCLE 131137Z 1312/1418 26006KT P6SM OVC050
     FM131300 29010KT P6SM OVC015
     FM131600 30010G20KT P6SM OVC025
     FM131800 33010G20KT P6SM BKN035
     FM132200 31012KT P6SM BKN050
     FM140100 01006KT P6SM OVC035
     FM140400 VRB03KT P6SM SCT035
     FM141200 00000KT P6SM SKC=



000
FTUS41 KCLE 131100
TAFTOL
TAF
KTOL 131137Z 1312/1412 27010G15KT P6SM OVC015
     FM131800 32012KT P6SM BKN035
     FM132100 VRB03KT P6SM SCT035
     FM140000 00000KT P6SM SKC
     FM141100 00000KT 4SM BR SKC=



000
FTUS41 KCLE 131000 AAA
TAFMFD
TAF AMD
KMFD 131011Z 1310/1406 25005KT P6SM OVC035
     FM131600 32008KT P6SM BKN035
     FM131900 33009KT P6SM BKN050
     FM132200 36005KT P6SM SCT050=



000
FTUS41 KCLE 131000 AAA
TAFFDY
TAF AMD
KFDY 131009Z 1310/1406 30010KT P6SM OVC012
      TEMPO 1310/1311 OVC007
     FM131200 28010G20KT P6SM OVC025
     FM131800 32008KT P6SM BKN035
     FM132100 VRB03KT P6SM SCT035=



000
FTUS41 KCLE 130900 AAA
TAFERI
TAF AMD
KERI 130938Z 1310/1406 09005KT P6SM OVC025
      TEMPO 1310/1313 SCT025 OVC035
     FM131300 25010G20KT 6SM -SHRA BKN015 OVC025
     FM131700 27015G25KT P6SM VCSH OVC025
     FM140100 33006KT P6SM BKN035=



000
FTUS41 KCLE 130800 AAA
TAFCLE
TAF AMD
KCLE 130854Z 1309/1412 18005KT P6SM OVC035
     FM131100 25008KT 5SM -SHRA BR BKN025 OVC060
     FM131400 27012G20KT P6SM OVC028
     FM132000 33010KT P6SM BKN035
     FM140100 01006KT P6SM VCSH OVC030
     FM140700 VRB03KT P6SM OVC030=



000
FTUS41 KCLE 130800 AAA
TAFTOL
TAF AMD
KTOL 130840Z 1309/1406 29006KT 6SM -RA BR OVC025
      TEMPO 1309/1312 4SM BR OVC015
     FM131200 28012G20KT P6SM OVC020
     FM131800 32008KT P6SM BKN035
     FM132100 VRB03KT P6SM SCT035=



000
FTUS41 KCLE 130700 AAA
TAFYNG
TAF AMD
KYNG 130745Z 1308/1406 09007KT P6SM OVC028
     FM131000 25005KT 5SM BR OVC028
     FM131200 27010KT P6SM VCSH BKN022 OVC030
     FM131500 27010G20KT P6SM BKN035
     FM132000 32008KT P6SM BKN035
     FM132300 34005KT P6SM BKN050=



000
FTUS41 KCLE 130700 AAA
TAFCAK
TAF AMD
KCAK 130744Z 1308/1406 25005KT 6SM BR OVC028
     FM131200 27010KT P6SM VCSH BKN022 OVC030
     FM131500 27010G20KT P6SM BKN035
     FM132000 32008KT P6SM BKN035
     FM132200 36005KT P6SM BKN050=



000
FTUS41 KCLE 130500
TAFMFD
TAF
KMFD 130529Z 1306/1406 VRB03KT P6SM OVC035
     FM130800 25005KT 6SM BR OVC030
     FM131000 27010KT 5SM BR VCSH BKN022 OVC030
     FM131600 32008KT P6SM BKN035
     FM131900 33009KT P6SM BKN050
     FM132200 36005KT P6SM SCT050=



000
FTUS41 KCLE 130500
TAFCLE
TAF
KCLE 130529Z 1306/1412 11005KT P6SM OVC035
     FM131100 25008KT 5SM -SHRA BR BKN025 OVC060
     FM131400 27012G20KT P6SM OVC028
     FM132000 33010KT P6SM BKN035
     FM140100 01006KT P6SM VCSH OVC030
     FM140700 VRB03KT P6SM OVC030=



000
FTUS41 KCLE 130500
TAFTOL
TAF
KTOL 130529Z 1306/1406 VRB03KT 6SM -RA BR OVC035
      TEMPO 1306/1309 3SM -RA OVC035
     FM130900 27006KT 5SM -RA BR OVC025
      TEMPO 1310/1312 6SM OVC012
     FM131200 28012G20KT P6SM OVC020
     FM131800 32008KT P6SM BKN035
     FM132100 VRB03KT P6SM SCT035=



000
FTUS41 KCLE 130500
TAFYNG
TAF
KYNG 130529Z 1306/1406 09007KT P6SM OVC035
     FM131000 25005KT 5SM BR OVC030
     FM131200 27010KT P6SM VCSH BKN022 OVC030
     FM131500 27010G20KT P6SM BKN035
     FM132000 32008KT P6SM BKN035
     FM132300 34005KT P6SM BKN050=



000
FTUS41 KCLE 130500
TAFFDY
TAF
KFDY 130529Z 1306/1406 VRB03KT P6SM SCT028 OVC035
     FM130900 28005KT 5SM -RA BR OVC028
     FM131200 28010G20KT P6SM OVC020
     FM131800 32008KT P6SM BKN035
     FM132100 VRB03KT P6SM SCT035=



000
FTUS41 KCLE 130500
TAFCAK
TAF
KCAK 130529Z 1306/1406 08006KT P6SM OVC035
     FM130900 25005KT 5SM BR OVC028
     FM131200 27010KT P6SM VCSH BKN022 OVC030
     FM131500 27010G20KT P6SM BKN035
     FM132000 32008KT P6SM BKN035
     FM132200 36005KT P6SM BKN050=



000
FTUS41 KCLE 130500
TAFERI
TAF
KERI 130529Z 1306/1406 09005KT P6SM OVC035
     FM131300 25010G20KT 6SM -SHRA BKN015 OVC025
     FM131700 27015G25KT P6SM VCSH OVC025
     FM140100 33006KT P6SM BKN035=



000
FTUS41 KCLE 130300 AAA
TAFMFD
TAF AMD
KMFD 130342Z 1304/1324 VRB03KT P6SM OVC035
     FM130800 25005KT 6SM BR OVC030
     FM131000 27010KT 5SM BR VCSH BKN022 OVC030
     FM131600 32008KT P6SM BKN035=



000
FTUS41 KCLE 130300 AAA
TAFTOL
TAF AMD
KTOL 130340Z 1304/1324 VRB03KT P6SM OVC045
     FM130900 27006KT 5SM -RA BR OVC028
      TEMPO 1310/1312 6SM OVC012
     FM131200 28012G20KT P6SM OVC020
     FM131800 32008KT P6SM BKN035=



000
FTUS41 KCLE 130300 AAA
TAFCLE
TAF AMD
KCLE 130301Z 1303/1406 10005KT P6SM SCT028 OVC040
     FM130500 14006KT P6SM OVC035
     FM131100 25008KT 5SM -SHRA BR BKN025 OVC060
     FM131400 27012G20KT P6SM OVC028
     FM132000 33010KT P6SM BKN035
     FM140100 01006KT P6SM BKN030=



000
FTUS41 KCLE 122300 CCA
TAFTOL
TAF COR
KTOL 122359Z 1300/1324 06004KT P6SM OVC028
     FM130800 27006KT 5SM -RA BR OVC028
     FM131200 28012G20KT P6SM OVC025
     FM131800 32008KT P6SM BKN035=



000
FTUS41 KCLE 122300 CCA
TAFYNG
TAF COR
KYNG 122358Z 1300/1324 06005KT P6SM OVC030
     FM131000 25005KT 5SM BR OVC030
     FM131200 27010KT P6SM VCSH BKN022 OVC030
     FM131500 27010G20KT P6SM BKN035
     FM132000 32008KT P6SM BKN035=



000
FTUS41 KCLE 122300 AAA
TAFCAK
TAF AMD
KCAK 122358Z 1300/1324 06005KT P6SM OVC030
     FM130900 25005KT 5SM BR OVC028
     FM131200 27010KT P6SM VCSH BKN022 OVC030
     FM131500 27010G20KT P6SM BKN035
     FM132000 32008KT P6SM BKN035=



000
FTUS41 KCLE 122300 RRA
TAFERI
TAF
KERI 122342Z 1300/1324 07008KT P6SM SCT025 OVC035
     FM130400 14006KT P6SM BKN035
     FM131300 25010G20KT 6SM -SHRA BKN025 OVC050
     FM131700 27015G25KT P6SM OVC025=



000
FTUS41 KCLE 122300 RRA
TAFYNG
TAF
KYNG 122342Z 1300/1324 04005KT P6SM OVC035
     FM131000 25005KT 5SM BR OVC030
     FM131200 27010KT P6SM VCSH BKN022 OVC030
     FM131500 27010G20KT P6SM BKN035
     FM132000 32008KT P6SM BKN035=



000
FTUS41 KCLE 122300 RRA
TAFCLE
TAF
KCLE 122342Z 1300/1406 04007KT P6SM SCT028 OVC040
     FM130500 14006KT P6SM BKN028
     FM131100 25008KT 5SM -SHRA BR BKN025 OVC060
     FM131400 27012G20KT P6SM OVC028
     FM132000 33010KT P6SM BKN035
     FM140100 01006KT P6SM BKN030=



000
FTUS41 KCLE 122300 RRA
TAFFDY
TAF
KFDY 122342Z 1300/1324 07004KT P6SM SCT028 OVC035
     FM130900 28005KT 5SM -RA BR OVC028
     FM131200 28010G20KT P6SM OVC020
     FM131800 32008KT P6SM BKN035=



000
FTUS41 KCLE 122300 RRA
TAFMFD
TAF
KMFD 122342Z 1300/1324 05005KT P6SM SCT022 OVC028
     FM130800 25005KT 6SM BR OVC030
     FM131000 27010KT 5SM BR VCSH BKN022 OVC030
     FM131600 32008KT P6SM BKN035=



000
FTUS41 KCLE 122300 RRA
TAFCAK
TAF
KCAK 122342Z 1300/1324 06005KT P6SM OVC035
     FM130900 25005KT 5SM BR OVC028
     FM131200 27010KT P6SM VCSH BKN022 OVC030
     FM131500 27010G20KT P6SM BKN035
     FM132000 32008KT P6SM BKN035=



000
FTUS41 KCLE 122300 RRA
TAFTOL
TAF
KTOL 122342Z 1300/1324 06004KT P6SM BKN035 OVC045
     FM130800 27006KT 5SM -RA BR OVC028
     FM131200 28012G20KT P6SM OVC025
     FM131800 32008KT P6SM BKN035=



000
FTUS41 KCLE 122100 AAA
TAFCLE
TAF AMD
KCLE 122107Z 1221/1324 02008KT P6SM SCT028 OVC040
      TEMPO 1221/1224 BKN028
     FM130500 14006KT P6SM BKN028
     FM131000 19004KT 5SM -RA BKN025 OVC060
     FM131800 33012KT P6SM VCSH OVC022=



000
FTUS41 KCLE 121900 AAA
TAFYNG
TAF AMD
KYNG 121923Z 1219/1318 04005KT P6SM OVC035
      TEMPO 1220/1224 BKN028
     FM131000 04005KT 5SM -RA BR BKN025 OVC070
     FM131700 31009KT 6SM -RA BR OVC020=



000
FTUS41 KCLE 121900 AAA
TAFCAK
TAF AMD
KCAK 121922Z 1219/1318 05006KT P6SM OVC035
      TEMPO 1220/1224 BKN028
     FM131000 05006KT 5SM -RA BR BKN025 OVC070
     FM131700 31010KT P6SM VCSH OVC022=



000
FTUS41 KCLE 121900 AAA
TAFERI
TAF AMD
KERI 121921Z 1219/1318 05010KT P6SM SCT025 OVC035
     FM130100 08005KT P6SM BKN035
     FM131000 12005KT 5SM -RA BR BKN025 OVC060=



000
FTUS41 KCLE 121900 AAA
TAFCLE
TAF AMD
KCLE 121920Z 1219/1324 04008KT P6SM SCT028 OVC040
      TEMPO 1219/1223 BKN028
     FM131000 01004KT 5SM -RA BKN025 OVC060
     FM131800 33012KT P6SM VCSH OVC022=



000
FTUS41 KCLE 121900 AAA
TAFMFD
TAF AMD
KMFD 121918Z 1219/1318 04007KT P6SM SCT022 OVC035
      TEMPO 1220/1224 BKN022
     FM131000 32004KT 5SM -RA BR BKN020 OVC060
     FM131700 32010KT P6SM OVC022=



000
FTUS41 KCLE 121900 AAA
TAFFDY
TAF AMD
KFDY 121916Z 1219/1318 04007KT P6SM SCT025 BKN035
      TEMPO 1219/1223 BKN025
     FM130800 31005KT 5SM -RA BR BKN025 OVC060
     FM131500 33011KT P6SM BKN030=



000
FTUS41 KCLE 121700
TAFTOL
TAF
KTOL 121725Z 1218/1318 03006KT P6SM BKN035
      TEMPO 1218/1220 BKN028
     FM130800 30005KT 5SM -RA BR BKN025 OVC060
     FM131500 33011KT P6SM BKN030=



000
FTUS41 KCLE 121700
TAFMFD
TAF
KMFD 121725Z 1218/1318 03008KT P6SM SCT018 OVC030
      TEMPO 1218/1221 BKN018
     FM122300 03005KT P6SM BKN035
     FM131000 32004KT 5SM -RA BR BKN020 OVC060
     FM131700 32010KT P6SM OVC022=



000
FTUS41 KCLE 121700
TAFYNG
TAF
KYNG 121725Z 1218/1318 02007KT P6SM OVC030
      TEMPO 1218/1222 BKN035
     FM131000 04005KT 5SM -RA BR BKN025 OVC070
     FM131700 31009KT 6SM -RA BR OVC020=



000
FTUS41 KCLE 121700
TAFCLE
TAF
KCLE 121725Z 1218/1324 03009KT P6SM BKN025 OVC035
      TEMPO 1218/1221 5SM -RA SCT018 OVC035
     FM122100 03007KT P6SM OVC035
     FM131000 01004KT 5SM -RA BKN025 OVC060
     FM131800 33012KT P6SM VCSH OVC022=



000
FTUS41 KCLE 121700
TAFCAK
TAF
KCAK 121725Z 1218/1318 04006KT P6SM BKN030
     FM131000 05006KT 5SM -RA BR BKN025 OVC070
     FM131700 31010KT P6SM VCSH OVC022=



000
FTUS41 KCLE 121700
TAFERI
TAF
KERI 121725Z 1218/1318 05010KT P6SM OVC028
     FM130000 06006KT P6SM SCT035 BKN120
     FM131000 12005KT 5SM -RA BR BKN025 OVC060=



000
FTUS41 KCLE 121700
TAFFDY
TAF
KFDY 121725Z 1218/1318 04007KT P6SM BKN035
      TEMPO 1218/1221 BKN022
     FM130800 31005KT 5SM -RA BR BKN025 OVC060
     FM131500 33011KT P6SM BKN030=



000
FTUS41 KCLE 121400 AAB
TAFCLE
TAF AMD
KCLE 121454Z 1215/1318 03008KT P6SM OVC030
      TEMPO 1215/1218 4SM -SHRA BKN018
     FM121900 02010KT P6SM BKN035
     FM130100 03007KT P6SM BKN050
     FM131000 05006KT 6SM -RA BKN030 OVC070=



000
FTUS41 KCLE 121400 AAB
TAFCAK
TAF AMD
KCAK 121428Z 1214/1312 05008KT P6SM SCT009 OVC018
      TEMPO 1214/1216 4SM -DZ BKN009
     FM121600 04008KT P6SM OVC018
     FM121900 03007KT P6SM BKN035
     FM131000 05006KT 6SM BR VCSH BKN025 OVC080=



000
FTUS41 KCLE 121300 AAA
TAFERI
TAF AMD
KERI 121346Z 1214/1312 05008KT P6SM BKN015 OVC030
      TEMPO 1214/1217 SCT015 OVC030
     FM121700 03010KT P6SM BKN030
     FM122000 03010KT P6SM SCT035
     FM130000 06006KT P6SM SCT040 BKN120
     FM131000 12005KT P6SM VCSH BKN040 OVC070=



000
FTUS41 KCLE 121300 AAA
TAFYNG
TAF AMD
KYNG 121343Z 1214/1312 02007KT P6SM BKN025
     FM121800 02008KT P6SM BKN035
     FM131000 04005KT 6SM BR VCSH BKN025 OVC080=



000
FTUS41 KCLE 121300 AAA
TAFCAK
TAF AMD
KCAK 121341Z 1214/1312 05007KT P6SM BKN009 OVC018
      TEMPO 1214/1215 SCT009 OVC018
     FM121500 04008KT P6SM OVC018
     FM121900 03007KT P6SM BKN035
     FM131000 05006KT 6SM BR VCSH BKN025 OVC080=



000
FTUS41 KCLE 121300 AAA
TAFCLE
TAF AMD
KCLE 121338Z 1214/1318 01008KT P6SM OVC030
      TEMPO 1214/1216 OVC035
     FM121600 02010KT P6SM BKN035
     FM130100 03007KT P6SM BKN050
     FM131000 05006KT 6SM -RA BKN030 OVC070=



000
FTUS41 KCLE 121300 AAA
TAFMFD
TAF AMD
KMFD 121335Z 1214/1312 02007KT P6SM BKN015 OVC030
      TEMPO 1214/1216 SCT015 OVC030
     FM121600 03008KT P6SM OVC030
     FM122000 03007KT P6SM BKN040=



000
FTUS41 KCLE 121300 AAA
TAFFDY
TAF AMD
KFDY 121333Z 1214/1312 02008KT P6SM OVC015
      TEMPO 1214/1216 OVC030
     FM121600 04009KT P6SM OVC030
     FM121800 05009KT P6SM BKN040
     FM130500 07006KT P6SM -SHRA OVC045=



000
FTUS41 KCLE 121300 AAA
TAFTOL
TAF AMD
KTOL 121331Z 1214/1312 02007KT P6SM OVC035
      TEMPO 1214/1216 BKN025
     FM122100 05008KT P6SM BKN040
     FM130000 07008KT P6SM BKN050
     FM130400 07006KT P6SM -SHRA OVC035=



000
FTUS41 KCLE 121100
TAFFDY
TAF
KFDY 121135Z 1212/1312 01008KT P6SM OVC035
      TEMPO 1212/1214 BKN022
     FM121500 03008KT P6SM BKN035
     FM121800 05009KT P6SM OVC050
     FM122200 05009KT P6SM SCT045 OVC100
     FM130000 06009KT P6SM SCT050 BKN120
     FM130500 07007KT P6SM -SHRA OVC045=



000
FTUS41 KCLE 121100
TAFMFD
TAF
KMFD 121135Z 1212/1312 02007KT P6SM OVC025
     FM121500 05008KT P6SM OVC030
     FM122000 03008KT P6SM OVC050
     FM122300 02007KT P6SM BKN045
     FM130300 05006KT P6SM OVC040=



000
FTUS41 KCLE 121100
TAFCAK
TAF
KCAK 121135Z 1212/1312 02008KT P6SM OVC025
      TEMPO 1212/1214 BKN010
     FM121500 05008KT P6SM OVC028
     FM122100 02007KT P6SM BKN050
     FM122300 02007KT P6SM SCT250
     FM130100 03007KT P6SM BKN050 BKN250
     FM130500 05006KT P6SM OVC040=



000
FTUS41 KCLE 121100
TAFERI
TAF
KERI 121135Z 1212/1312 02008KT P6SM OVC030
      TEMPO 1212/1214 BKN015
     FM121500 02010KT P6SM BKN030
     FM122000 03010KT P6SM SCT250
     FM130100 03007KT P6SM BKN050 BKN250
     FM130500 05006KT P6SM OVC040=



000
FTUS41 KCLE 121100
TAFCLE
TAF
KCLE 121135Z 1212/1318 02008KT P6SM OVC035
      TEMPO 1212/1214 BKN022
     FM121600 04010KT P6SM BKN030
     FM122200 03010KT P6SM SCT250
     FM130100 03007KT P6SM BKN050 BKN250
     FM130500 05006KT P6SM OVC040=



000
FTUS41 KCLE 121100
TAFYNG
TAF
KYNG 121135Z 1212/1312 02007KT P6SM -SHRA OVC025
      TEMPO 1212/1214 OVC015
     FM121400 03008KT P6SM OVC025
     FM121600 03008KT P6SM BKN030
     FM122100 01007KT P6SM BKN050
     FM122300 01007KT P6SM SCT250=



000
FTUS41 KCLE 121100
TAFTOL
TAF
KTOL 121135Z 1212/1312 02007KT P6SM OVC035
      TEMPO 1212/1214 BKN018
     FM121500 04008KT P6SM BKN035
     FM121700 04007KT P6SM BKN050
     FM122100 05008KT P6SM BKN040
     FM130000 07008KT P6SM OVC050
     FM130400 07006KT P6SM -SHRA OVC035=



000
FTUS41 KCLE 120900 AAA
TAFERI
TAF AMD
KERI 120923Z 1209/1306 32009KT P6SM -SHRA OVC022
      TEMPO 1209/1212 BKN015
     FM121500 03010KT P6SM OVC025
     FM122000 03010KT P6SM SCT250
     FM130100 03007KT P6SM BKN050 BKN250
     FM130500 05006KT P6SM OVC040=



000
FTUS41 KCLE 120900 AAA
TAFCAK
TAF AMD
KCAK 120921Z 1209/1306 02005KT P6SM OVC025
      TEMPO 1209/1212 BKN018
     FM121500 05008KT P6SM OVC028
     FM122100 02007KT P6SM BKN050
     FM122300 02007KT P6SM SCT250
     FM130100 03007KT P6SM BKN050 BKN250
     FM130500 05006KT P6SM OVC040=



000
FTUS41 KCLE 120900 AAA
TAFFDY
TAF AMD
KFDY 120919Z 1209/1306 36007KT P6SM OVC035
      TEMPO 1209/1212 BKN022
     FM121500 03008KT P6SM BKN035
     FM121800 05009KT P6SM OVC050
     FM122200 05009KT P6SM SCT045 OVC100
     FM130000 06009KT P6SM SCT050 BKN120
     FM130500 07007KT P6SM -SHRA OVC045=



000
FTUS41 KCLE 120900 AAA
TAFTOL
TAF AMD
KTOL 120918Z 1209/1306 02006KT P6SM OVC035
      TEMPO 1209/1211 BKN022
     FM121500 04008KT P6SM BKN035
     FM121700 04007KT P6SM BKN050
     FM122100 05008KT P6SM BKN040
     FM130000 07008KT P6SM OVC050
     FM130400 07006KT P6SM -SHRA OVC035=



000
FTUS41 KCLE 120900 AAA
TAFCLE
TAF AMD
KCLE 120901Z 1209/1312 36007KT 6SM BR OVC025
      TEMPO 1209/1212 BKN018
     FM121600 04010KT P6SM OVC025
     FM122200 03010KT P6SM SCT250
     FM130100 03007KT P6SM BKN050 BKN250
     FM130500 05006KT P6SM OVC040=



000
FTUS41 KCLE 120500
TAFYNG
TAF
KYNG 120536Z 1206/1306 35006KT 6SM -SHRA BR OVC015
      TEMPO 1206/1210 3SM -SHRA OVC008
     FM121000 36006KT 6SM BR OVC008
     FM121400 03008KT P6SM OVC010
     FM121600 03008KT P6SM OVC012
     FM122100 01007KT P6SM OVC050
     FM122300 01007KT P6SM SCT250=



000
FTUS41 KCLE 120500
TAFTOL
TAF
KTOL 120536Z 1206/1306 36007KT P6SM OVC022
     FM120900 02005KT P6SM OVC012
      TEMPO 1209/1213 BKN008
     FM121500 04008KT P6SM BKN025
     FM121700 04007KT P6SM OVC050
     FM122100 05008KT P6SM BKN040
     FM130000 07008KT P6SM OVC050
     FM130400 07006KT P6SM -SHRA OVC035=



000
FTUS41 KCLE 120500
TAFFDY
TAF
KFDY 120536Z 1206/1306 34008KT P6SM OVC025
     FM121000 36005KT P6SM OVC012
     FM121500 04008KT P6SM OVC025
     FM121800 05009KT P6SM OVC050
     FM122200 05009KT P6SM SCT045 OVC100
     FM130000 06009KT P6SM SCT050 BKN120
     FM130500 07007KT P6SM -SHRA OVC045=



000
FTUS41 KCLE 120500
TAFMFD
TAF
KMFD 120536Z 1206/1306 35007KT P6SM OVC020
     FM121500 05008KT P6SM OVC025
     FM122000 03008KT P6SM OVC050
     FM122300 02007KT P6SM BKN045
     FM130300 05006KT P6SM OVC040=



000
FTUS41 KCLE 120500
TAFCLE
TAF
KCLE 120536Z 1206/1312 36007KT 6SM BR OVC025
     FM121600 04010KT P6SM OVC025
     FM122200 03010KT P6SM SCT250
     FM130100 03007KT P6SM BKN050 BKN250
     FM130500 05006KT P6SM OVC040=



000
FTUS41 KCLE 120500
TAFCAK
TAF
KCAK 120536Z 1206/1306 02005KT P6SM OVC015
     FM121500 05008KT P6SM OVC015
     FM122100 02007KT P6SM OVC050
     FM122300 02007KT P6SM SCT250
     FM130100 03007KT P6SM BKN050 BKN250
     FM130500 05006KT P6SM OVC040=



000
FTUS41 KCLE 120500
TAFERI
TAF
KERI 120536Z 1206/1306 32009KT P6SM OVC020
     FM120800 01006KT P6SM OVC008
     FM121500 03010KT P6SM OVC012
     FM122000 03010KT P6SM SCT250
     FM130100 03007KT P6SM BKN050 BKN250
     FM130500 05006KT P6SM OVC040=



000
FTUS41 KCLE 120400 AAA
TAFYNG
TAF AMD
KYNG 120425Z 1204/1224 35006KT P6SM OVC015
     FM120800 34006KT P6SM OVC010
     FM121000 36006KT P6SM OVC008
     FM121400 03008KT P6SM OVC010
     FM121600 03008KT P6SM OVC012
     FM122100 01007KT P6SM OVC050
     FM122300 01007KT P6SM SCT250=



000
FTUS41 KCLE 120300 AAA
TAFCAK
TAF AMD
KCAK 120300Z 1203/1224 02005KT P6SM OVC015
     FM121500 05008KT P6SM OVC015
     FM122100 02007KT P6SM OVC050
     FM122300 02007KT P6SM SCT250=



000
FTUS41 KCLE 120200 AAA
TAFMFD
TAF AMD
KMFD 120259Z 1203/1224 35007KT P6SM OVC020
     FM121500 05008KT P6SM OVC025
     FM122000 03008KT P6SM OVC050=



000
FTUS41 KCLE 120200 AAA
TAFCLE
TAF AMD
KCLE 120258Z 1203/1306 36007KT P6SM OVC025
     FM121600 04010KT P6SM OVC025
     FM122200 03010KT P6SM SCT250=



    US Dept of Commerce
    National Oceanic and Atmospheric Administration
    National Weather Service
    1325 East West Highway
    Silver Spring, MD 20910
    Page Author: NWS Internet Services Team
Disclaimer
Information Quality
Credits
Glossary
Privacy Policy
Freedom of Information Act (FOIA)
About Us
Career Opportunities